sensor_id;sensor_type;location;lat;lon;timestamp;pressure;altitude;pressure_sealevel;temperature;humidity
29383;BME280;16365;51.598;7.668;2023-02-12T00:00:40;103117.19;;;14.64;50.13
29383;BME280;16365;51.598;7.668;2023-02-12T00:03:08;103115.25;;;14.64;50.33
29383;BME280;16365;51.598;7.668;2023-02-12T00:05:38;103116.38;;;14.63;50.08
29383;BME280;16365;51.598;7.668;2023-02-12T00:08:09;103109.66;;;14.64;50.07
29383;BME280;16365;51.598;7.668;2023-02-12T00:10:40;103114.13;;;14.65;50.45
29383;BME280;16365;51.598;7.668;2023-02-12T00:13:09;103107.72;;;14.65;50.42
29383;BME280;16365;51.598;7.668;2023-02-12T00:15:40;103111.63;;;14.64;50.20
29383;BME280;16365;51.598;7.668;2023-02-12T00:18:07;103098.22;;;14.66;50.50
29383;BME280;16365;51.598;7.668;2023-02-12T00:20:35;103104.06;;;14.64;50.06
29383;BME280;16365;51.598;7.668;2023-02-12T00:23:01;103110.53;;;14.65;50.09
29383;BME280;16365;51.598;7.668;2023-02-12T00:25:28;103100.44;;;14.64;50.13
29383;BME280;16365;51.598;7.668;2023-02-12T00:27:54;103104.06;;;14.64;50.55
29383;BME280;16365;51.598;7.668;2023-02-12T00:30:21;103102.41;;;14.63;49.83
29383;BME280;16365;51.598;7.668;2023-02-12T00:32:47;103096.84;;;14.63;49.95
29383;BME280;16365;51.598;7.668;2023-02-12T00:35:14;103103.25;;;14.64;50.41
29383;BME280;16365;51.598;7.668;2023-02-12T00:37:41;103100.44;;;14.64;49.82
29383;BME280;16365;51.598;7.668;2023-02-12T00:40:08;103101.59;;;14.63;50.17
29383;BME280;16365;51.598;7.668;2023-02-12T00:42:35;103091.25;;;14.63;50.17
29383;BME280;16365;51.598;7.668;2023-02-12T00:45:01;103094.88;;;14.64;50.26
29383;BME280;16365;51.598;7.668;2023-02-12T00:47:27;103096.00;;;14.63;50.22
29383;BME280;16365;51.598;7.668;2023-02-12T00:49:54;103094.03;;;14.63;50.07
29383;BME280;16365;51.598;7.668;2023-02-12T00:52:20;103096.84;;;14.63;50.47
29383;BME280;16365;51.598;7.668;2023-02-12T00:54:47;103097.97;;;14.62;50.11
29383;BME280;16365;51.598;7.668;2023-02-12T00:57:13;103091.00;;;14.60;50.32
29383;BME280;16365;51.598;7.668;2023-02-12T00:59:40;103091.00;;;14.60;50.36
29383;BME280;16365;51.598;7.668;2023-02-12T01:02:08;103091.31;;;14.58;50.22
29383;BME280;16365;51.598;7.668;2023-02-12T01:04:34;103094.09;;;14.58;50.41
29383;BME280;16365;51.598;7.668;2023-02-12T01:07:01;103089.97;;;14.56;49.97
29383;BME280;16365;51.598;7.668;2023-02-12T01:09:27;103097.50;;;14.55;50.65
29383;BME280;16365;51.598;7.668;2023-02-12T01:11:54;103093.34;;;14.53;50.01
29383;BME280;16365;51.598;7.668;2023-02-12T01:14:21;103102.84;;;14.52;50.22
29383;BME280;16365;51.598;7.668;2023-02-12T01:16:47;103105.91;;;14.50;50.39
29383;BME280;16365;51.598;7.668;2023-02-12T01:19:13;103105.38;;;14.48;50.37
29383;BME280;16365;51.598;7.668;2023-02-12T01:21:40;103103.16;;;14.45;50.32
29383;BME280;16365;51.598;7.668;2023-02-12T01:24:07;103111.00;;;14.43;50.75
29383;BME280;16365;51.598;7.668;2023-02-12T01:26:33;103102.94;;;14.42;50.71
29383;BME280;16365;51.598;7.668;2023-02-12T01:29:03;103098.44;;;14.40;50.56
29383;BME280;16365;51.598;7.668;2023-02-12T01:31:31;103105.16;;;14.39;50.43
29383;BME280;16365;51.598;7.668;2023-02-12T01:33:59;103101.53;;;14.39;50.67
29383;BME280;16365;51.598;7.668;2023-02-12T01:36:27;103095.13;;;14.38;50.68
29383;BME280;16365;51.598;7.668;2023-02-12T01:38:55;103096.78;;;14.39;50.41
29383;BME280;16365;51.598;7.668;2023-02-12T01:41:26;103096.25;;;14.37;50.68
29383;BME280;16365;51.598;7.668;2023-02-12T01:44:18;103104.38;;;14.34;51.10
29383;BME280;16365;51.598;7.668;2023-02-12T01:46:57;103105.78;;;14.36;50.53
29383;BME280;16365;51.598;7.668;2023-02-12T01:49:40;103101.59;;;14.34;51.11
29383;BME280;16365;51.598;7.668;2023-02-12T01:52:23;103097.16;;;14.33;51.34
29383;BME280;16365;51.598;7.668;2023-02-12T01:54:55;103094.06;;;14.34;50.76
29383;BME280;16365;51.598;7.668;2023-02-12T01:57:24;103094.88;;;14.35;50.87
29383;BME280;16365;51.598;7.668;2023-02-12T01:59:53;103103.25;;;14.35;50.70
29383;BME280;16365;51.598;7.668;2023-02-12T02:02:21;103091.25;;;14.34;51.04
29383;BME280;16365;51.598;7.668;2023-02-12T02:04:59;103094.34;;;14.33;50.86
29383;BME280;16365;51.598;7.668;2023-02-12T02:07:27;103089.03;;;14.36;50.92
29383;BME280;16365;51.598;7.668;2023-02-12T02:09:55;103092.91;;;14.35;50.59
29383;BME280;16365;51.598;7.668;2023-02-12T02:12:24;103092.66;;;14.37;50.59
29383;BME280;16365;51.598;7.668;2023-02-12T02:15:09;103093.47;;;14.37;50.81
29383;BME280;16365;51.598;7.668;2023-02-12T02:17:52;103086.81;;;14.33;50.97
29383;BME280;16365;51.598;7.668;2023-02-12T02:29:08;103092.41;;;14.33;51.13
29383;BME280;16365;51.598;7.668;2023-02-12T02:31:42;103092.91;;;14.35;50.90
29383;BME280;16365;51.598;7.668;2023-02-12T02:36:49;103087.34;;;14.35;51.36
29383;BME280;16365;51.598;7.668;2023-02-12T02:39:46;103088.47;;;14.34;51.33
29383;BME280;16365;51.598;7.668;2023-02-12T02:42:17;103078.13;;;14.35;50.52
29383;BME280;16365;51.598;7.668;2023-02-12T02:44:52;103081.25;;;14.33;51.07
29383;BME280;16365;51.598;7.668;2023-02-12T02:47:22;103074.81;;;14.33;50.83
29383;BME280;16365;51.598;7.668;2023-02-12T02:50:05;103071.78;;;14.29;50.89
29383;BME280;16365;51.598;7.668;2023-02-12T02:52:44;103065.06;;;14.30;50.62
29383;BME280;16365;51.598;7.668;2023-02-12T02:55:16;103065.91;;;14.31;50.98
29383;BME280;16365;51.598;7.668;2023-02-12T02:57:47;103062.28;;;14.30;50.52
29383;BME280;16365;51.598;7.668;2023-02-12T03:00:19;103067.88;;;14.30;50.41
29383;BME280;16365;51.598;7.668;2023-02-12T03:02:52;103072.63;;;14.30;50.58
29383;BME280;16365;51.598;7.668;2023-02-12T03:05:28;103068.69;;;14.31;50.56
29383;BME280;16365;51.598;7.668;2023-02-12T03:08:00;103069.81;;;14.30;50.37
29383;BME280;16365;51.598;7.668;2023-02-12T03:10:35;103067.03;;;14.30;50.30
29383;BME280;16365;51.598;7.668;2023-02-12T03:13:35;103067.34;;;14.28;51.12
29383;BME280;16365;51.598;7.668;2023-02-12T03:16:08;103070.13;;;14.28;50.79
29383;BME280;16365;51.598;7.668;2023-02-12T03:18:51;103067.03;;;14.30;50.40
29383;BME280;16365;51.598;7.668;2023-02-12T03:21:28;103062.91;;;14.27;50.46
29383;BME280;16365;51.598;7.668;2023-02-12T03:26:54;103065.97;;;14.26;51.03
29383;BME280;16365;51.598;7.668;2023-02-12T03:29:25;103059.28;;;14.27;50.86
29383;BME280;16365;51.598;7.668;2023-02-12T03:32:27;103065.75;;;14.22;51.19
29383;BME280;16365;51.598;7.668;2023-02-12T03:37:49;103073.81;;;14.24;51.14
29383;BME280;16365;51.598;7.668;2023-02-12T03:40:20;103065.44;;;14.24;50.37
29383;BME280;16365;51.598;7.668;2023-02-12T03:43:06;103074.09;;;14.22;51.30
29383;BME280;16365;51.598;7.668;2023-02-12T03:45:43;103069.34;;;14.23;50.97
29383;BME280;16365;51.598;7.668;2023-02-12T03:53:41;103081.88;;;14.25;50.34
29383;BME280;16365;51.598;7.668;2023-02-12T03:56:12;103080.22;;;14.24;50.51
29383;BME280;16365;51.598;7.668;2023-02-12T03:58:42;103080.22;;;14.24;50.53
29383;BME280;16365;51.598;7.668;2023-02-12T04:01:10;103087.75;;;14.24;50.53
29383;BME280;16365;51.598;7.668;2023-02-12T04:03:37;103090.25;;;14.25;50.49
29383;BME280;16365;51.598;7.668;2023-02-12T04:06:04;103087.44;;;14.25;50.51
29383;BME280;16365;51.598;7.668;2023-02-12T04:08:31;103091.38;;;14.24;50.88
29383;BME280;16365;51.598;7.668;2023-02-12T04:11:21;103089.16;;;14.21;51.03
29383;BME280;16365;51.598;7.668;2023-02-12T04:16:50;103094.75;;;14.21;50.73
29383;BME280;16365;51.598;7.668;2023-02-12T04:19:25;103098.09;;;14.23;51.02
29383;BME280;16365;51.598;7.668;2023-02-12T04:22:13;103088.34;;;14.21;50.62
29383;BME280;16365;51.598;7.668;2023-02-12T04:24:59;103097.53;;;14.21;51.40
29383;BME280;16365;51.598;7.668;2023-02-12T04:30:23;103108.13;;;14.24;50.29
29383;BME280;16365;51.598;7.668;2023-02-12T04:32:58;103113.69;;;14.24;50.97
29383;BME280;16365;51.598;7.668;2023-02-12T04:35:36;103115.97;;;14.22;50.92
29383;BME280;16365;51.598;7.668;2023-02-12T04:41:07;103121.25;;;14.24;50.43
29383;BME280;16365;51.598;7.668;2023-02-12T04:43:35;103126.81;;;14.24;50.38
29383;BME280;16365;51.598;7.668;2023-02-12T04:46:04;103130.44;;;14.24;50.51
29383;BME280;16365;51.598;7.668;2023-02-12T04:48:31;103131.28;;;14.25;51.33
29383;BME280;16365;51.598;7.668;2023-02-12T04:50:59;103127.91;;;14.28;50.33
29383;BME280;16365;51.598;7.668;2023-02-12T04:53:26;103130.97;;;14.26;50.60
29383;BME280;16365;51.598;7.668;2023-02-12T04:55:52;103129.09;;;14.22;50.65
29383;BME280;16365;51.598;7.668;2023-02-12T04:58:20;103132.97;;;14.21;50.75
29383;BME280;16365;51.598;7.668;2023-02-12T05:00:47;103124.91;;;14.19;50.31
29383;BME280;16365;51.598;7.668;2023-02-12T05:03:13;103132.44;;;14.19;50.78
29383;BME280;16365;51.598;7.668;2023-02-12T05:05:40;103126.03;;;14.18;51.03
29383;BME280;16365;51.598;7.668;2023-02-12T05:08:07;103129.97;;;14.17;50.42
29383;BME280;16365;51.598;7.668;2023-02-12T05:10:34;103131.91;;;14.17;50.71
29383;BME280;16365;51.598;7.668;2023-02-12T05:13:00;103129.09;;;14.17;50.71
29383;BME280;16365;51.598;7.668;2023-02-12T05:15:27;103126.31;;;14.17;51.06
29383;BME280;16365;51.598;7.668;2023-02-12T05:17:54;103129.97;;;14.17;51.06
29383;BME280;16365;51.598;7.668;2023-02-12T05:20:20;103126.31;;;14.17;51.08
29383;BME280;16365;51.598;7.668;2023-02-12T05:22:50;103133.84;;;14.16;51.24
29383;BME280;16365;51.598;7.668;2023-02-12T05:25:17;103128.84;;;14.18;50.89
29383;BME280;16365;51.598;7.668;2023-02-12T05:27:43;103122.13;;;14.19;50.98
29383;BME280;16365;51.598;7.668;2023-02-12T05:30:10;103126.03;;;14.18;50.52
29383;BME280;16365;51.598;7.668;2023-02-12T05:32:37;103133.28;;;14.19;50.70
29383;BME280;16365;51.598;7.668;2023-02-12T05:35:05;103134.94;;;14.20;50.32
29383;BME280;16365;51.598;7.668;2023-02-12T05:37:34;103133.28;;;14.19;51.17
29383;BME280;16365;51.598;7.668;2023-02-12T05:40:03;103140.50;;;14.20;51.25
29383;BME280;16365;51.598;7.668;2023-02-12T05:42:30;103134.94;;;14.20;50.76
29383;BME280;16365;51.598;7.668;2023-02-12T05:44:56;103136.91;;;14.20;50.45
29383;BME280;16365;51.598;7.668;2023-02-12T05:47:23;103138.84;;;14.19;50.73
29383;BME280;16365;51.598;7.668;2023-02-12T05:49:49;103138.03;;;14.19;50.91
29383;BME280;16365;51.598;7.668;2023-02-12T05:52:16;103134.41;;;14.18;50.96
29383;BME280;16365;51.598;7.668;2023-02-12T05:54:42;103138.03;;;14.19;50.68
29383;BME280;16365;51.598;7.668;2023-02-12T05:57:08;103134.41;;;14.18;51.16
29383;BME280;16365;51.598;7.668;2023-02-12T05:59:35;103140.00;;;14.18;50.65
29383;BME280;16365;51.598;7.668;2023-02-12T06:02:01;103142.78;;;14.18;50.71
29383;BME280;16365;51.598;7.668;2023-02-12T06:04:29;103139.16;;;14.18;50.52
29383;BME280;16365;51.598;7.668;2023-02-12T06:06:55;103136.38;;;14.18;50.83
29383;BME280;16365;51.598;7.668;2023-02-12T06:09:23;103147.53;;;14.18;50.60
29383;BME280;16365;51.598;7.668;2023-02-12T06:11:50;103145.00;;;14.16;50.64
29383;BME280;16365;51.598;7.668;2023-02-12T06:14:18;103138.59;;;14.15;50.94
29383;BME280;16365;51.598;7.668;2023-02-12T06:16:47;103143.06;;;14.17;50.97
29383;BME280;16365;51.598;7.668;2023-02-12T06:19:14;103139.44;;;14.16;50.46
29383;BME280;16365;51.598;7.668;2023-02-12T06:21:41;103143.91;;;14.17;50.65
29383;BME280;16365;51.598;7.668;2023-02-12T06:24:09;103149.75;;;14.15;51.01
29383;BME280;16365;51.598;7.668;2023-02-12T06:26:37;103153.38;;;14.16;51.04
29383;BME280;16365;51.598;7.668;2023-02-12T06:29:03;103148.63;;;14.17;50.75
29383;BME280;16365;51.598;7.668;2023-02-12T06:31:32;103158.13;;;14.15;50.79
29383;BME280;16365;51.598;7.668;2023-02-12T06:34:02;103154.22;;;14.17;50.55
29383;BME280;16365;51.598;7.668;2023-02-12T06:36:29;103167.91;;;14.18;50.95
29383;BME280;16365;51.598;7.668;2023-02-12T06:38:55;103160.34;;;14.19;50.77
29383;BME280;16365;51.598;7.668;2023-02-12T06:41:22;103159.53;;;14.18;50.73
29383;BME280;16365;51.598;7.668;2023-02-12T06:43:49;103157.56;;;14.19;50.73
29383;BME280;16365;51.598;7.668;2023-02-12T06:46:16;103161.19;;;14.19;50.78
29383;BME280;16365;51.598;7.668;2023-02-12T06:48:43;103158.38;;;14.19;50.92
29383;BME280;16365;51.598;7.668;2023-02-12T06:51:12;103160.34;;;14.19;50.42
29383;BME280;16365;51.598;7.668;2023-02-12T06:53:39;103170.69;;;14.18;50.78
29383;BME280;16365;51.598;7.668;2023-02-12T06:56:08;103178.22;;;14.18;50.63
29383;BME280;16365;51.598;7.668;2023-02-12T06:58:40;103169.56;;;14.19;50.98
29383;BME280;16365;51.598;7.668;2023-02-12T07:01:11;103171.22;;;14.20;50.93
29383;BME280;16365;51.598;7.668;2023-02-12T07:03:39;103172.28;;;14.24;50.53
29383;BME280;16365;51.598;7.668;2023-02-12T07:06:07;103177.88;;;14.24;50.44
29383;BME280;16365;51.598;7.668;2023-02-12T07:08:34;103181.78;;;14.23;50.21
29383;BME280;16365;51.598;7.668;2023-02-12T07:11:00;103176.50;;;14.22;50.22
29383;BME280;16365;51.598;7.668;2023-02-12T07:13:26;103174.56;;;14.22;50.62
29383;BME280;16365;51.598;7.668;2023-02-12T07:15:53;103180.97;;;14.23;50.49
29383;BME280;16365;51.598;7.668;2023-02-12T07:18:20;103181.78;;;14.23;50.23
29383;BME280;16365;51.598;7.668;2023-02-12T07:20:47;103179.00;;;14.23;50.37
29383;BME280;16365;51.598;7.668;2023-02-12T07:23:13;103190.69;;;14.25;50.52
29383;BME280;16365;51.598;7.668;2023-02-12T07:25:40;103187.91;;;14.25;50.65
29383;BME280;16365;51.598;7.668;2023-02-12T07:28:06;103203.25;;;14.28;50.65
29383;BME280;16365;51.598;7.668;2023-02-12T07:30:32;103198.50;;;14.28;50.48
29383;BME280;16365;51.598;7.668;2023-02-12T07:32:59;103195.41;;;14.30;50.24
29383;BME280;16365;51.598;7.668;2023-02-12T07:35:25;103204.31;;;14.32;50.34
29383;BME280;16365;51.598;7.668;2023-02-12T07:37:52;103209.59;;;14.33;50.30
29383;BME280;16365;51.598;7.668;2023-02-12T07:40:18;103208.19;;;14.36;50.40
29383;BME280;16365;51.598;7.668;2023-02-12T07:42:45;103207.91;;;14.37;50.50
29383;BME280;16365;51.598;7.668;2023-02-12T07:45:12;103206.78;;;14.38;50.72
29383;BME280;16365;51.598;7.668;2023-02-12T07:47:38;103207.28;;;14.40;50.40
29383;BME280;16365;51.598;7.668;2023-02-12T07:50:06;103202.56;;;14.41;50.44
29383;BME280;16365;51.598;7.668;2023-02-12T07:52:33;103211.78;;;14.42;50.30
29383;BME280;16365;51.598;7.668;2023-02-12T07:54:59;103215.09;;;14.44;50.59
29383;BME280;16365;51.598;7.668;2023-02-12T07:57:27;103218.13;;;14.47;50.58
29383;BME280;16365;51.598;7.668;2023-02-12T07:59:53;103224.28;;;14.49;50.60
29383;BME280;16365;51.598;7.668;2023-02-12T08:02:20;103222.03;;;14.51;49.86
29383;BME280;16365;51.598;7.668;2023-02-12T08:04:46;103231.50;;;14.55;50.52
29383;BME280;16365;51.598;7.668;2023-02-12T08:07:13;103223.34;;;14.59;50.52
29383;BME280;16365;51.598;7.668;2023-02-12T08:09:40;103228.66;;;14.60;50.12
29383;BME280;16365;51.598;7.668;2023-02-12T08:12:06;103230.03;;;14.63;50.37
29383;BME280;16365;51.598;7.668;2023-02-12T08:14:33;103230.28;;;14.67;50.08
29383;BME280;16365;51.598;7.668;2023-02-12T08:16:59;103236.94;;;14.71;49.95
29383;BME280;16365;51.598;7.668;2023-02-12T08:19:26;103239.13;;;14.74;49.82
29383;BME280;16365;51.598;7.668;2023-02-12T08:21:53;103229.66;;;14.75;49.90
29383;BME280;16365;51.598;7.668;2023-02-12T08:24:20;103243.56;;;14.80;49.91
29383;BME280;16365;51.598;7.668;2023-02-12T08:26:47;103244.91;;;14.82;50.34
29383;BME280;16365;51.598;7.668;2023-02-12T08:29:18;103243.50;;;14.85;49.89
29383;BME280;16365;51.598;7.668;2023-02-12T08:31:47;103249.31;;;14.88;49.93
29383;BME280;16365;51.598;7.668;2023-02-12T08:34:16;103240.34;;;14.91;49.96
29383;BME280;16365;51.598;7.668;2023-02-12T08:36:42;103247.31;;;14.94;49.89
29383;BME280;16365;51.598;7.668;2023-02-12T08:39:09;103241.41;;;14.96;49.78
29383;BME280;16365;51.598;7.668;2023-02-12T08:41:36;103256.75;;;14.98;49.70
29383;BME280;16365;51.598;7.668;2023-02-12T08:44:04;103254.25;;;14.97;49.45
29383;BME280;16365;51.598;7.668;2023-02-12T08:46:33;103250.88;;;15.00;49.28
29383;BME280;16365;51.598;7.668;2023-02-12T08:49:06;103249.44;;;15.02;49.53
29383;BME280;16365;51.598;7.668;2023-02-12T08:51:34;103256.41;;;15.05;49.57
29383;BME280;16365;51.598;7.668;2023-02-12T08:54:04;103256.09;;;15.06;49.63
29383;BME280;16365;51.598;7.668;2023-02-12T08:56:33;103259.16;;;15.10;49.63
29383;BME280;16365;51.598;7.668;2023-02-12T08:59:02;103253.81;;;15.13;49.43
29383;BME280;16365;51.598;7.668;2023-02-12T09:01:32;103250.41;;;15.16;49.45
29383;BME280;16365;51.598;7.668;2023-02-12T09:03:59;103261.00;;;15.20;49.15
29383;BME280;16365;51.598;7.668;2023-02-12T09:06:26;103257.06;;;15.21;48.98
29383;BME280;16365;51.598;7.668;2023-02-12T09:08:54;103262.06;;;15.24;49.10
29383;BME280;16365;51.598;7.668;2023-02-12T09:11:24;103268.50;;;15.24;49.00
29383;BME280;16365;51.598;7.668;2023-02-12T09:13:57;103266.22;;;15.26;49.13
29383;BME280;16365;51.598;7.668;2023-02-12T09:16:26;103265.06;;;15.27;49.13
29383;BME280;16365;51.598;7.668;2023-02-12T09:18:52;103265.31;;;15.31;49.14
29383;BME280;16365;51.598;7.668;2023-02-12T09:21:20;103272.81;;;15.35;48.92
29383;BME280;16365;51.598;7.668;2023-02-12T09:23:47;103267.22;;;15.35;48.99
29383;BME280;16365;51.598;7.668;2023-02-12T09:26:16;103275.31;;;15.37;48.72
29383;BME280;16365;51.598;7.668;2023-02-12T09:28:43;103282.28;;;15.39;48.70
29383;BME280;16365;51.598;7.668;2023-02-12T09:31:15;103276.69;;;15.39;48.43
29383;BME280;16365;51.598;7.668;2023-02-12T09:33:43;103282.78;;;15.41;48.58
29383;BME280;16365;51.598;7.668;2023-02-12T09:36:13;103286.41;;;15.42;48.34
29383;BME280;16365;51.598;7.668;2023-02-12T09:38:41;103279.41;;;15.45;48.73
29383;BME280;16365;51.598;7.668;2023-02-12T09:41:52;103282.22;;;15.45;48.12
29383;BME280;16365;51.598;7.668;2023-02-12T09:44:20;103281.00;;;15.51;48.14
29383;BME280;16365;51.598;7.668;2023-02-12T09:47:14;103281.00;;;15.51;47.76
29383;BME280;16365;51.598;7.668;2023-02-12T09:50:10;103286.84;;;15.54;47.70
29383;BME280;16365;51.598;7.668;2023-02-12T09:52:39;103290.09;;;15.61;48.80
29383;BME280;16365;51.598;7.668;2023-02-12T09:55:12;103291.50;;;15.64;48.11
29383;BME280;16365;51.598;7.668;2023-02-12T09:57:40;103291.44;;;15.69;48.22
29383;BME280;16365;51.598;7.668;2023-02-12T10:00:08;103288.56;;;15.74;48.36
29383;BME280;16365;51.598;7.668;2023-02-12T10:02:37;103290.16;;;15.80;48.22
29383;BME280;16365;51.598;7.668;2023-02-12T10:05:14;103281.50;;;15.82;47.71
29383;BME280;16365;51.598;7.668;2023-02-12T10:10:44;103295.84;;;15.94;47.39
29383;BME280;16365;51.598;7.668;2023-02-12T10:18:48;103287.31;;;16.04;46.95
29383;BME280;16365;51.598;7.668;2023-02-12T10:26:48;103287.38;;;16.18;47.40
29383;BME280;16365;51.598;7.668;2023-02-12T10:29:16;103289.88;;;16.19;47.52
29383;BME280;16365;51.598;7.668;2023-02-12T10:31:47;103282.00;;;16.22;47.41
29383;BME280;16365;51.598;7.668;2023-02-12T10:34:20;103290.03;;;16.28;47.48
29383;BME280;16365;51.598;7.668;2023-02-12T10:36:48;103287.44;;;16.32;47.13
29383;BME280;16365;51.598;7.668;2023-02-12T10:39:23;103276.75;;;16.34;46.68
29383;BME280;16365;51.598;7.668;2023-02-12T10:42:17;103279.78;;;16.37;46.38
29383;BME280;16365;51.598;7.668;2023-02-12T10:44:47;103275.16;;;16.47;47.24
29383;BME280;16365;51.598;7.668;2023-02-12T10:47:21;103285.78;;;16.50;46.08
29383;BME280;16365;51.598;7.668;2023-02-12T10:50:00;103279.25;;;16.54;46.25
29383;BME280;16365;51.598;7.668;2023-02-12T10:52:44;103268.25;;;16.58;45.80
29383;BME280;16365;51.598;7.668;2023-02-12T10:55:30;103276.88;;;16.61;45.09
29383;BME280;16365;51.598;7.668;2023-02-12T10:57:58;103272.00;;;16.67;46.20
29383;BME280;16365;51.598;7.668;2023-02-12T11:00:34;103275.63;;;16.67;45.23
29383;BME280;16365;51.598;7.668;2023-02-12T11:03:19;103273.66;;;16.68;44.43
29383;BME280;16365;51.598;7.668;2023-02-12T11:05:47;103271.94;;;16.72;45.77
29383;BME280;16365;51.598;7.668;2023-02-12T11:08:28;103261.84;;;16.71;44.90
29383;BME280;16365;51.598;7.668;2023-02-12T11:11:02;103269.69;;;16.74;44.99
29383;BME280;16365;51.598;7.668;2023-02-12T11:13:31;103263.16;;;16.79;45.67
29383;BME280;16365;51.598;7.668;2023-02-12T11:15:58;103260.56;;;16.82;45.97
29383;BME280;16365;51.598;7.668;2023-02-12T11:18:29;103259.63;;;16.87;45.69
29383;BME280;16365;51.598;7.668;2023-02-12T11:21:05;103255.91;;;16.91;45.33
29383;BME280;16365;51.598;7.668;2023-02-12T11:23:35;103251.34;;;16.95;45.40
29383;BME280;16365;51.598;7.668;2023-02-12T11:26:06;103255.19;;;17.00;44.92
29383;BME280;16365;51.598;7.668;2023-02-12T11:28:35;103255.41;;;17.03;45.20
29383;BME280;16365;51.598;7.668;2023-02-12T11:31:19;103251.47;;;17.04;44.50
29383;BME280;16365;51.598;7.668;2023-02-12T11:34:17;103245.25;;;17.07;44.02
29383;BME280;16365;51.598;7.668;2023-02-12T11:36:49;103254.88;;;17.15;44.18
29383;BME280;16365;51.598;7.668;2023-02-12T11:39:26;103246.19;;;17.16;43.98
29383;BME280;16365;51.598;7.668;2023-02-12T11:41:55;103243.91;;;17.18;44.29
29383;BME280;16365;51.598;7.668;2023-02-12T11:44:26;103246.09;;;17.21;44.81
29383;BME280;16365;51.598;7.668;2023-02-12T11:47:02;103247.53;;;17.19;44.34
29383;BME280;16365;51.598;7.668;2023-02-12T11:49:42;103254.50;;;17.21;44.05
29383;BME280;16365;51.598;7.668;2023-02-12T11:52:35;103249.72;;;17.22;43.49
29383;BME280;16365;51.598;7.668;2023-02-12T11:55:21;103249.91;;;17.26;43.43
29383;BME280;16365;51.598;7.668;2023-02-12T11:57:51;103244.50;;;17.29;44.31
29383;BME280;16365;51.598;7.668;2023-02-12T12:00:24;103235.28;;;17.29;43.55
29383;BME280;16365;51.598;7.668;2023-02-12T12:05:34;103226.03;;;17.28;43.41
29383;BME280;16365;51.598;7.668;2023-02-12T12:08:10;103232.16;;;17.30;43.49
29383;BME280;16365;51.598;7.668;2023-02-12T12:11:18;103226.88;;;17.29;42.82
29383;BME280;16365;51.598;7.668;2023-02-12T12:14:14;103225.22;;;17.28;42.83
29383;BME280;16365;51.598;7.668;2023-02-12T12:16:54;103219.81;;;17.31;43.75
29383;BME280;16365;51.598;7.668;2023-02-12T12:22:41;103212.84;;;17.29;43.20
29383;BME280;16365;51.598;7.668;2023-02-12T12:30:44;103212.94;;;17.24;42.45
29383;BME280;16365;51.598;7.668;2023-02-12T12:33:25;103204.53;;;17.24;43.12
29383;BME280;16365;51.598;7.668;2023-02-12T12:50:40;103186.16;;;17.31;42.44
29383;BME280;16365;51.598;7.668;2023-02-12T13:11:08;103163.28;;;17.38;42.35
29383;BME280;16365;51.598;7.668;2023-02-12T13:13:33;103160.81;;;17.36;42.75
29383;BME280;16365;51.598;7.668;2023-02-12T13:16:10;103158.84;;;17.37;42.69
29383;BME280;16365;51.598;7.668;2023-02-12T13:19:01;103164.44;;;17.37;43.14
29383;BME280;16365;51.598;7.668;2023-02-12T13:21:42;103158.50;;;17.38;42.74
29383;BME280;16365;51.598;7.668;2023-02-12T13:27:00;103155.72;;;17.38;42.64
29383;BME280;16365;51.598;7.668;2023-02-12T13:29:37;103145.09;;;17.35;42.36
29383;BME280;16365;51.598;7.668;2023-02-12T13:32:31;103145.97;;;17.36;42.65
29383;BME280;16365;51.598;7.668;2023-02-12T13:35:01;103152.69;;;17.35;42.69
29383;BME280;16365;51.598;7.668;2023-02-12T13:37:34;103146.25;;;17.34;43.14
29383;BME280;16365;51.598;7.668;2023-02-12T13:40:06;103157.25;;;17.31;42.50
29383;BME280;16365;51.598;7.668;2023-02-12T14:05:15;103149.63;;;16.95;42.50
29383;BME280;16365;51.598;7.668;2023-02-12T14:07:48;103149.97;;;16.93;43.13
29383;BME280;16365;51.598;7.668;2023-02-12T14:10:38;103154.84;;;16.88;42.90
29383;BME280;16365;51.598;7.668;2023-02-12T14:13:14;103149.22;;;16.88;43.18
29383;BME280;16365;51.598;7.668;2023-02-12T14:15:45;103153.16;;;16.87;43.09
29383;BME280;16365;51.598;7.668;2023-02-12T14:18:34;103149.34;;;16.83;43.02
29383;BME280;16365;51.598;7.668;2023-02-12T14:23:43;103151.81;;;16.84;43.03
29383;BME280;16365;51.598;7.668;2023-02-12T14:26:16;103159.69;;;16.82;42.70
29383;BME280;16365;51.598;7.668;2023-02-12T14:33:49;103157.00;;;16.77;43.03
29383;BME280;16365;51.598;7.668;2023-02-12T14:36:40;103158.97;;;16.77;43.42
29383;BME280;16365;51.598;7.668;2023-02-12T14:41:49;103157.00;;;16.77;43.03
29383;BME280;16365;51.598;7.668;2023-02-12T14:46:57;103153.69;;;16.75;43.23
29383;BME280;16365;51.598;7.668;2023-02-12T14:54:50;103158.53;;;16.69;42.90
29383;BME280;16365;51.598;7.668;2023-02-12T15:00:04;103150.72;;;16.66;42.70
29383;BME280;16365;51.598;7.668;2023-02-12T15:02:56;103148.75;;;16.67;42.83
29383;BME280;16365;51.598;7.668;2023-02-12T15:05:36;103150.50;;;16.63;43.03
29383;BME280;16365;51.598;7.668;2023-02-12T15:11:19;103143.78;;;16.64;43.53
29383;BME280;16365;51.598;7.668;2023-02-12T15:16:32;103143.34;;;16.57;43.24
29383;BME280;16365;51.598;7.668;2023-02-12T15:19:12;103137.25;;;16.55;43.16
29383;BME280;16365;51.598;7.668;2023-02-12T15:21:43;103142.84;;;16.55;43.54
29383;BME280;16365;51.598;7.668;2023-02-12T15:24:13;103138.69;;;16.52;43.34
29383;BME280;16365;51.598;7.668;2023-02-12T15:26:51;103132.88;;;16.49;43.03
29383;BME280;16365;51.598;7.668;2023-02-12T15:29:24;103136.53;;;16.49;43.37
29383;BME280;16365;51.598;7.668;2023-02-12T15:31:58;103134.84;;;16.48;43.62
29383;BME280;16365;51.598;7.668;2023-02-12T15:34:28;103136.81;;;16.48;43.54